createdAt,value
2024-02-29T00:00:27.837Z,100777.44
2024-02-29T00:02:56.951Z,100776.94
2024-02-29T00:05:23.925Z,100773.13
2024-02-29T00:07:50.927Z,100775.41
2024-02-29T00:10:20.784Z,100778.34
2024-02-29T00:12:49.311Z,100767.75
2024-02-29T00:15:16.290Z,100779.53
2024-02-29T00:17:46.183Z,100774.81
2024-02-29T00:20:13.210Z,100771.03
2024-02-29T00:22:40.274Z,100771.38
2024-02-29T00:25:08.796Z,100766.00
2024-02-29T00:27:40.966Z,100772.75
2024-02-29T00:30:09.967Z,100769.34
2024-02-29T00:32:37.036Z,100770.09
2024-02-29T00:35:04.766Z,100765.50
2024-02-29T00:37:31.760Z,100768.41
2024-02-29T00:39:58.745Z,100759.31
2024-02-29T00:42:25.743Z,100763.59
2024-02-29T00:44:55.348Z,100767.44
2024-02-29T00:47:22.339Z,100767.94
2024-02-29T00:49:49.271Z,100768.69
2024-02-29T00:52:16.459Z,100770.09
2024-02-29T00:54:43.441Z,100763.31
2024-02-29T00:57:13.361Z,100758.00
2024-02-29T00:59:40.447Z,100756.56
2024-02-29T01:02:09.975Z,100750.22
2024-02-29T01:04:36.937Z,100751.19
2024-02-29T01:07:03.990Z,100747.66
2024-02-29T01:09:30.998Z,100750.44
2024-02-29T01:11:58.103Z,100742.72
2024-02-29T01:14:27.223Z,100735.28
2024-02-29T01:16:54.220Z,100732.00
2024-02-29T01:19:26.755Z,100726.66
2024-02-29T01:21:54.769Z,100718.63
2024-02-29T01:24:21.752Z,100727.88
2024-02-29T01:26:51.819Z,100723.44
2024-02-29T01:29:18.718Z,100712.38
2024-02-29T01:31:45.701Z,100705.66
2024-02-29T01:34:16.897Z,100711.59
2024-02-29T01:36:47.054Z,100710.25
2024-02-29T01:39:16.290Z,100709.13
2024-02-29T01:41:43.523Z,100702.53
2024-02-29T01:44:10.453Z,100707.28
2024-02-29T01:46:37.453Z,100702.53
2024-02-29T01:49:06.128Z,100708.97
2024-02-29T01:51:34.063Z,100709.00
2024-02-29T01:54:04.577Z,100699.53
2024-02-29T01:56:32.022Z,100694.94
2024-02-29T01:59:00.730Z,100695.63
2024-02-29T02:01:28.693Z,100694.34
2024-02-29T02:03:57.274Z,100692.31
2024-02-29T02:06:24.766Z,100696.06
2024-02-29T02:08:52.180Z,100698.34
2024-02-29T02:11:21.982Z,100694.59
2024-02-29T02:13:48.927Z,100699.31
2024-02-29T02:16:16.415Z,100694.94
2024-02-29T02:18:43.490Z,100689.03
2024-02-29T02:21:13.099Z,100690.34
2024-02-29T02:23:40.013Z,100695.78
2024-02-29T02:26:06.969Z,100698.38
2024-02-29T02:28:34.121Z,100690.84
2024-02-29T02:31:01.121Z,100686.13
2024-02-29T02:33:28.154Z,100683.56
2024-02-29T02:35:55.160Z,100683.22
2024-02-29T02:38:25.460Z,100677.84
2024-02-29T02:40:52.529Z,100680.25
2024-02-29T02:43:19.537Z,100676.84
2024-02-29T02:45:46.556Z,100666.81
2024-02-29T02:48:13.731Z,100670.06
2024-02-29T02:50:40.889Z,100667.28
2024-02-29T02:53:07.864Z,100668.53
2024-02-29T02:55:38.561Z,100659.38
2024-02-29T02:58:05.696Z,100654.53
2024-02-29T03:00:34.730Z,100657.56
2024-02-29T03:03:03.211Z,100661.47
2024-02-29T03:05:30.126Z,100649.06
2024-02-29T03:07:57.330Z,100644.50
2024-02-29T03:10:24.371Z,100651.16
2024-02-29T03:12:54.018Z,100645.81
2024-02-29T03:15:20.979Z,100650.56
2024-02-29T03:17:47.980Z,100640.31
2024-02-29T03:20:14.998Z,100642.53
2024-02-29T03:22:42.983Z,100635.97
2024-02-29T03:25:11.141Z,100629.16
2024-02-29T03:27:38.266Z,100639.63
2024-02-29T03:30:09.559Z,100625.53
2024-02-29T03:32:36.489Z,100625.28
2024-02-29T03:35:04.003Z,100628.44
2024-02-29T03:37:34.026Z,100617.31
2024-02-29T03:40:05.934Z,100615.59
2024-02-29T03:42:33.461Z,100621.19
2024-02-29T03:45:00.583Z,100614.59
2024-02-29T03:47:32.143Z,100619.72
2024-02-29T03:50:01.631Z,100626.59
2024-02-29T03:52:28.594Z,100625.16
2024-02-29T03:54:55.597Z,100624.31
2024-02-29T03:57:22.542Z,100622.88
2024-02-29T03:59:49.520Z,100622.38
2024-02-29T04:02:18.670Z,100617.06
2024-02-29T04:04:48.265Z,100613.03
2024-02-29T04:07:15.257Z,100612.44
2024-02-29T04:09:42.216Z,100617.31
2024-02-29T04:12:09.612Z,100613.03
2024-02-29T04:14:36.548Z,100608.31
2024-02-29T04:17:04.480Z,100604.41
2024-02-29T04:19:31.451Z,100603.44
2024-02-29T04:22:02.525Z,100601.28
2024-02-29T04:24:31.112Z,100598.13
2024-02-29T04:26:58.027Z,100604.06
2024-02-29T04:29:25.048Z,100602.75
2024-02-29T04:31:52.032Z,100594.97
2024-02-29T04:34:19.106Z,100594.72
2024-02-29T04:36:46.209Z,100599.84
2024-02-29T04:39:16.031Z,100590.97
2024-02-29T04:41:43.171Z,100594.50
2024-02-29T04:44:10.520Z,100590.84
2024-02-29T04:46:37.460Z,100593.88
2024-02-29T04:49:05.847Z,100587.94
2024-02-29T04:51:32.903Z,100583.56
2024-02-29T04:53:59.806Z,100585.75
2024-02-29T04:56:29.362Z,100581.63
2024-02-29T04:58:56.400Z,100580.63
2024-02-29T05:01:23.420Z,100585.25
2024-02-29T05:03:50.542Z,100573.25
2024-02-29T05:06:18.600Z,100573.25
2024-02-29T05:08:45.823Z,100575.06
2024-02-29T05:11:15.070Z,100568.28
2024-02-29T05:13:44.615Z,100565.25
2024-02-29T05:16:17.135Z,100573.75
2024-02-29T05:18:44.241Z,100576.28
2024-02-29T05:21:11.624Z,100571.06
2024-02-29T05:23:38.635Z,100565.84
2024-02-29T05:26:06.225Z,100568.69
2024-02-29T05:28:33.137Z,100566.50
2024-02-29T05:31:02.778Z,100562.56
2024-02-29T05:33:29.836Z,100566.00
2024-02-29T05:35:57.190Z,100556.31
2024-02-29T05:38:24.130Z,100566.06
2024-02-29T05:40:51.121Z,100569.16
2024-02-29T05:43:18.195Z,100573.03
2024-02-29T05:45:45.223Z,100572.25
2024-02-29T05:48:14.878Z,100570.34
2024-02-29T05:50:41.880Z,100563.34
2024-02-29T05:53:08.894Z,100562.16
2024-02-29T05:55:35.921Z,100557.78
2024-02-29T05:58:02.968Z,100555.56
2024-02-29T06:00:30.344Z,100548.25
2024-02-29T06:02:57.301Z,100546.28
2024-02-29T06:05:26.944Z,100544.19
2024-02-29T06:07:53.917Z,100549.88
2024-02-29T06:10:20.960Z,100547.53
2024-02-29T06:12:50.856Z,100544.56
2024-02-29T06:15:17.974Z,100541.75
2024-02-29T06:17:45.195Z,100542.75
2024-02-29T06:20:13.205Z,100530.22
2024-02-29T06:22:43.672Z,100534.09
2024-02-29T06:25:13.449Z,100536.00
2024-02-29T06:27:40.878Z,100535.72
2024-02-29T06:30:09.811Z,100537.31
2024-02-29T06:32:37.338Z,100536.63
2024-02-29T06:35:06.047Z,100530.44
2024-02-29T06:37:33.086Z,100534.34
2024-02-29T06:40:03.068Z,100537.84
2024-02-29T06:42:30.025Z,100517.53
2024-02-29T06:44:57.224Z,100533.19
2024-02-29T06:47:26.465Z,100532.09
2024-02-29T06:49:53.436Z,100526.03
2024-02-29T06:52:20.484Z,100524.81
2024-02-29T06:54:47.513Z,100518.53
2024-02-29T06:57:17.059Z,100519.50
2024-02-29T06:59:43.995Z,100519.97
2024-02-29T07:02:17.455Z,100520.16
2024-02-29T07:04:46.669Z,100519.41
2024-02-29T07:07:18.122Z,100522.06
2024-02-29T07:09:47.910Z,100520.44
2024-02-29T07:12:19.919Z,100522.13
2024-02-29T07:14:47.957Z,100523.34
2024-02-29T07:17:15.118Z,100517.78
2024-02-29T07:19:42.120Z,100516.81
2024-02-29T07:22:09.236Z,100514.88
2024-02-29T07:24:36.224Z,100512.69
2024-02-29T07:27:03.263Z,100514.41
2024-02-29T07:29:33.034Z,100521.09
2024-02-29T07:32:02.439Z,100518.78
2024-02-29T07:34:29.395Z,100514.88
2024-02-29T07:36:56.470Z,100520.59
2024-02-29T07:39:23.938Z,100517.78
2024-02-29T07:41:54.084Z,100517.69
2024-02-29T07:44:24.112Z,100512.94
2024-02-29T07:46:57.905Z,100519.13
2024-02-29T07:49:24.869Z,100516.94
2024-02-29T07:52:06.176Z,100522.38
2024-02-29T07:54:34.866Z,100516.50
2024-02-29T07:57:02.849Z,100519.97
2024-02-29T07:59:31.293Z,100513.91
2024-02-29T08:02:00.904Z,100522.38
2024-02-29T08:04:27.976Z,100508.56
2024-02-29T08:07:00.152Z,100513.75
2024-02-29T08:09:27.301Z,100498.94
2024-02-29T08:11:56.872Z,100500.00
2024-02-29T08:14:25.496Z,100506.03
2024-02-29T08:16:52.493Z,100502.38
2024-02-29T08:19:25.061Z,100501.44
2024-02-29T08:21:52.368Z,100504.66
2024-02-29T08:24:21.808Z,100494.75
2024-02-29T08:26:49.846Z,100489.56
2024-02-29T08:29:19.347Z,100485.06
2024-02-29T08:31:47.448Z,100484.97
2024-02-29T08:34:16.647Z,100484.34
2024-02-29T08:36:47.576Z,100484.34
2024-02-29T08:39:14.530Z,100476.44
2024-02-29T08:41:45.950Z,100477.81
2024-02-29T08:44:15.773Z,100479.53
2024-02-29T08:46:42.791Z,100472.28
2024-02-29T08:49:17.148Z,100469.69
2024-02-29T08:51:47.000Z,100474.31
2024-02-29T08:54:16.384Z,100472.69
2024-02-29T08:56:46.893Z,100466.16
2024-02-29T08:59:15.758Z,100463.97
2024-02-29T09:01:45.233Z,100456.81
2024-02-29T09:04:12.305Z,100460.13
2024-02-29T09:06:41.851Z,100446.94
2024-02-29T09:09:11.964Z,100446.13
2024-02-29T09:11:39.191Z,100445.88
2024-02-29T09:14:12.779Z,100439.94
2024-02-29T09:16:43.189Z,100435.63
2024-02-29T09:19:14.170Z,100434.38
2024-02-29T09:21:43.394Z,100426.72
2024-02-29T09:24:16.097Z,100418.09
2024-02-29T09:26:43.355Z,100415.47
2024-02-29T09:29:10.380Z,100418.44
2024-02-29T09:31:38.936Z,100413.25
2024-02-29T09:34:05.987Z,100409.72
2024-02-29T09:36:34.506Z,100408.09
2024-02-29T09:39:05.717Z,100407.13
2024-02-29T09:41:58.531Z,100408.56
2024-02-29T09:44:27.083Z,100409.41
2024-02-29T09:46:54.141Z,100403.66
2024-02-29T09:49:21.193Z,100396.88
2024-02-29T09:51:48.718Z,100397.44
2024-02-29T09:54:17.987Z,100392.50
2024-02-29T09:56:47.989Z,100384.63
2024-02-29T09:59:17.878Z,100384.63
2024-02-29T10:01:47.675Z,100376.72
2024-02-29T10:04:15.178Z,100373.06
2024-02-29T10:06:43.323Z,100361.59
2024-02-29T10:09:12.832Z,100367.75
2024-02-29T10:11:41.433Z,100356.81
2024-02-29T10:14:22.751Z,100355.56
2024-02-29T10:16:50.506Z,100355.81
2024-02-29T10:19:17.624Z,100348.50
2024-02-29T10:21:44.877Z,100343.38
2024-02-29T10:24:11.862Z,100340.59
2024-02-29T10:26:41.580Z,100343.38
2024-02-29T10:29:11.400Z,100334.69
2024-02-29T10:31:43.233Z,100321.97
2024-02-29T10:34:11.180Z,100324.81
2024-02-29T10:36:38.874Z,100322.50
2024-02-29T10:39:05.889Z,100318.94
2024-02-29T10:41:34.067Z,100306.13
2024-02-29T10:44:08.294Z,100302.09
2024-02-29T10:46:37.713Z,100296.25
2024-02-29T10:51:56.225Z,100294.38
2024-02-29T10:54:35.730Z,100284.31
2024-02-29T10:57:11.165Z,100270.03
2024-02-29T10:59:48.164Z,100270.91
2024-02-29T11:02:16.625Z,100267.00
2024-02-29T11:04:47.363Z,100260.75
2024-02-29T11:07:18.277Z,100260.03
2024-02-29T11:09:45.838Z,100262.44
2024-02-29T11:12:15.043Z,100250.94
2024-02-29T11:14:45.286Z,100238.50
2024-02-29T11:17:14.641Z,100241.78
2024-02-29T11:19:48.013Z,100240.13
2024-02-29T11:22:32.435Z,100230.50
2024-02-29T11:24:59.407Z,100225.53
2024-02-29T11:27:34.695Z,100208.69
2024-02-29T11:30:04.676Z,100209.94
2024-02-29T11:32:31.819Z,100211.75
2024-02-29T11:34:59.719Z,100195.28
2024-02-29T11:37:33.616Z,100193.72
2024-02-29T11:40:06.566Z,100193.44
2024-02-29T11:42:33.930Z,100179.78
2024-02-29T11:45:00.927Z,100172.06
2024-02-29T11:47:30.228Z,100171.56
2024-02-29T11:50:01.468Z,100164.13
2024-02-29T11:52:31.127Z,100154.84
2024-02-29T11:55:02.167Z,100152.88
2024-02-29T11:57:29.606Z,100146.81
2024-02-29T11:59:56.886Z,100135.63
2024-02-29T12:02:26.174Z,100134.75
2024-02-29T12:04:56.055Z,100125.66
2024-02-29T12:07:27.212Z,100116.59
2024-02-29T12:12:42.208Z,100104.19
2024-02-29T12:15:11.246Z,100096.06
2024-02-29T12:17:41.130Z,100078.53
2024-02-29T12:20:09.255Z,100074.88
2024-02-29T12:22:39.897Z,100074.59
2024-02-29T12:25:19.715Z,100071.47
2024-02-29T12:27:46.982Z,100072.66
2024-02-29T12:30:14.987Z,100077.34
2024-02-29T12:32:44.592Z,100064.31
2024-02-29T12:35:15.886Z,100055.94
2024-02-29T12:37:43.333Z,100048.81
2024-02-29T12:40:16.297Z,100044.66
2024-02-29T12:42:46.806Z,100038.09
2024-02-29T12:45:19.296Z,100034.97
2024-02-29T12:47:46.877Z,100031.81
2024-02-29T12:50:14.142Z,100018.78
2024-02-29T12:52:45.861Z,100019.44
2024-02-29T12:55:15.838Z,100008.56
2024-02-29T12:57:43.296Z,99996.63
2024-02-29T13:00:21.218Z,99992.94
2024-02-29T13:02:48.567Z,99991.13
2024-02-29T13:05:18.207Z,99985.22
2024-02-29T13:07:45.855Z,99975.03
2024-02-29T13:10:17.967Z,99973.16
2024-02-29T13:12:54.208Z,99970.28
2024-02-29T13:15:25.180Z,99959.06
2024-02-29T13:17:53.422Z,99943.69
2024-02-29T13:20:30.978Z,99944.78
2024-02-29T13:23:00.384Z,99946.53
2024-02-29T13:25:32.572Z,99942.81
2024-02-29T13:28:00.378Z,99920.91
2024-02-29T13:30:27.365Z,99912.78
2024-02-29T13:32:54.397Z,99903.59
2024-02-29T13:35:23.761Z,99890.09
2024-02-29T13:37:56.028Z,99893.88
2024-02-29T13:40:24.611Z,99892.53
2024-02-29T13:42:54.385Z,99891.78
2024-02-29T13:45:22.554Z,99891.31
2024-02-29T13:47:51.351Z,99884.47
2024-02-29T13:50:22.390Z,99880.81
2024-02-29T13:52:49.634Z,99867.41
2024-02-29T13:55:16.905Z,99872.59
2024-02-29T13:57:44.874Z,99858.97
2024-02-29T14:00:14.867Z,99865.16
2024-02-29T14:02:41.827Z,99860.25
2024-02-29T14:05:10.157Z,99851.56
2024-02-29T14:07:38.287Z,99845.84
2024-02-29T14:10:06.570Z,99840.56
2024-02-29T14:12:36.799Z,99840.03
2024-02-29T14:15:04.328Z,99828.16
2024-02-29T14:17:40.076Z,99817.28
2024-02-29T14:20:12.391Z,99823.28
2024-02-29T14:22:42.394Z,99816.88
2024-02-29T14:25:11.818Z,99808.84
2024-02-29T14:27:43.028Z,99797.47
2024-02-29T14:30:11.251Z,99795.44
2024-02-29T14:32:42.312Z,99793.75
2024-02-29T14:35:11.854Z,99784.94
2024-02-29T14:37:40.030Z,99775.22
2024-02-29T14:40:11.055Z,99765.06
2024-02-29T14:42:38.120Z,99765.22
2024-02-29T14:45:06.283Z,99761.88
2024-02-29T14:47:36.433Z,99756.19
2024-02-29T14:50:09.059Z,99762.19
2024-02-29T14:52:41.089Z,99759.72
2024-02-29T14:55:10.982Z,99752.69
2024-02-29T14:57:46.781Z,99756.88
2024-02-29T15:00:14.725Z,99740.53
2024-02-29T15:02:42.220Z,99738.06
2024-02-29T15:05:12.923Z,99744.31
2024-02-29T15:07:46.695Z,99730.16
2024-02-29T15:10:21.134Z,99735.22
2024-02-29T15:12:48.275Z,99727.78
2024-02-29T15:15:15.777Z,99725.94
2024-02-29T15:17:43.463Z,99709.34
2024-02-29T15:20:13.365Z,99712.00
2024-02-29T15:22:42.958Z,99701.84
2024-02-29T15:25:17.354Z,99700.88
2024-02-29T15:27:45.547Z,99709.53
2024-02-29T15:30:13.299Z,99705.34
2024-02-29T15:32:40.363Z,99704.31
2024-02-29T15:35:14.591Z,99685.25
2024-02-29T15:37:42.282Z,99693.22
2024-02-29T15:40:11.483Z,99678.47
2024-02-29T15:42:40.162Z,99672.91
2024-02-29T15:45:08.262Z,99671.53
2024-02-29T15:47:36.157Z,99666.69
2024-02-29T15:50:03.167Z,99665.16
2024-02-29T15:52:32.783Z,99671.56
2024-02-29T15:55:01.681Z,99663.88
2024-02-29T15:57:30.580Z,99670.78
2024-02-29T15:59:58.016Z,99670.91
2024-02-29T16:02:27.728Z,99658.81
2024-02-29T16:04:58.198Z,99658.94
2024-02-29T16:07:25.220Z,99666.56
2024-02-29T16:09:57.043Z,99658.53
2024-02-29T16:12:24.581Z,99653.84
2024-02-29T16:14:51.790Z,99659.81
2024-02-29T16:17:18.733Z,99657.34
2024-02-29T16:19:50.042Z,99644.34
2024-02-29T16:22:17.328Z,99641.00
2024-02-29T16:24:44.319Z,99639.19
2024-02-29T16:27:18.200Z,99644.63
2024-02-29T16:29:46.321Z,99634.09
2024-02-29T16:32:15.871Z,99635.44
2024-02-29T16:34:51.169Z,99641.44
2024-02-29T16:37:18.280Z,99636.47
2024-02-29T16:39:46.603Z,99638.22
2024-02-29T16:42:18.392Z,99638.19
2024-02-29T16:44:46.482Z,99630.06
2024-02-29T16:47:14.157Z,99631.13
2024-02-29T16:49:41.275Z,99633.63
2024-02-29T16:52:08.638Z,99635.31
2024-02-29T16:54:36.067Z,99626.34
2024-02-29T16:57:03.044Z,99629.44
2024-02-29T16:59:33.796Z,99633.78
2024-02-29T17:02:00.961Z,99638.59
2024-02-29T17:04:31.673Z,99624.59
2024-02-29T17:07:00.013Z,99622.22
2024-02-29T17:09:26.960Z,99624.22
2024-02-29T17:11:55.018Z,99630.38
2024-02-29T17:14:21.992Z,99630.47
2024-02-29T17:16:56.449Z,99628.25
2024-02-29T17:19:23.551Z,99620.91
2024-02-29T17:21:54.963Z,99621.22
2024-02-29T17:24:21.963Z,99612.22
2024-02-29T17:26:53.595Z,99617.06
2024-02-29T17:29:24.383Z,99618.13
2024-02-29T17:31:56.167Z,99610.91
2024-02-29T17:34:23.139Z,99620.38
2024-02-29T17:36:52.231Z,99621.03
2024-02-29T17:39:19.523Z,99616.00
2024-02-29T17:41:47.134Z,99605.63
2024-02-29T17:44:14.064Z,99600.00
2024-02-29T17:46:41.152Z,99605.81
2024-02-29T17:49:11.154Z,99600.88
2024-02-29T17:51:43.605Z,99597.84
2024-02-29T17:54:10.669Z,99600.03
2024-02-29T17:56:39.135Z,99590.53
2024-02-29T17:59:07.707Z,99593.22
2024-02-29T18:01:34.823Z,99589.81
2024-02-29T18:04:01.902Z,99581.22
2024-02-29T18:06:32.654Z,99587.91
2024-02-29T18:09:00.769Z,99578.22
2024-02-29T18:11:27.723Z,99592.19
2024-02-29T18:13:58.859Z,99592.28
2024-02-29T18:16:33.670Z,99587.97
2024-02-29T18:19:01.168Z,99586.28
2024-02-29T18:21:31.166Z,99579.50
2024-02-29T18:24:00.642Z,99573.19
2024-02-29T18:26:28.671Z,99577.31
2024-02-29T18:28:58.284Z,99570.13
2024-02-29T18:31:28.328Z,99572.94
2024-02-29T18:33:57.181Z,99572.28
2024-02-29T18:36:24.249Z,99566.22
2024-02-29T18:38:51.653Z,99564.38
2024-02-29T18:41:22.335Z,99555.63
2024-02-29T18:43:50.608Z,99567.06
2024-02-29T18:46:20.785Z,99561.13
2024-02-29T18:48:47.796Z,99557.59
2024-02-29T18:51:16.033Z,99557.44
2024-02-29T18:53:48.084Z,99549.25
2024-02-29T18:56:17.754Z,99543.84
2024-02-29T18:58:47.571Z,99548.47
2024-02-29T19:01:14.703Z,99543.94
2024-02-29T19:03:44.032Z,99544.03
2024-02-29T19:06:13.020Z,99546.81
2024-02-29T19:08:42.139Z,99539.56
2024-02-29T19:11:09.194Z,99541.91
2024-02-29T19:13:39.113Z,99537.03
2024-02-29T19:16:12.936Z,99537.94
2024-02-29T19:18:39.913Z,99539.69
2024-02-29T19:21:10.261Z,99542.69
2024-02-29T19:23:37.301Z,99536.28
2024-02-29T19:26:07.160Z,99539.69
2024-02-29T19:28:37.972Z,99531.38
2024-02-29T19:31:05.420Z,99534.22
2024-02-29T19:33:35.631Z,99533.78
2024-02-29T19:36:02.538Z,99539.44
2024-02-29T19:38:32.670Z,99534.44
2024-02-29T19:40:59.615Z,99526.94
2024-02-29T19:43:26.699Z,99522.88
2024-02-29T19:45:53.654Z,99527.59
2024-02-29T19:48:20.670Z,99528.72
2024-02-29T19:50:52.136Z,99523.78
2024-02-29T19:53:23.497Z,99524.63
2024-02-29T19:55:50.448Z,99519.66
2024-02-29T19:58:18.706Z,99514.81
2024-02-29T20:00:47.144Z,99503.88
2024-02-29T20:03:15.335Z,99499.63
2024-02-29T20:05:42.843Z,99496.44
2024-02-29T20:08:13.176Z,99503.38
2024-02-29T20:10:42.582Z,99504.06
2024-02-29T20:13:13.611Z,99501.41
2024-02-29T20:15:42.179Z,99500.78
2024-02-29T20:18:09.136Z,99506.00
2024-02-29T20:20:40.588Z,99505.47
2024-02-29T20:23:10.554Z,99507.97
2024-02-29T20:25:41.947Z,99499.50
2024-02-29T20:28:09.001Z,99501.69
2024-02-29T20:30:38.803Z,99507.56
2024-02-29T20:33:07.554Z,99512.31
2024-02-29T20:35:36.734Z,99512.16
2024-02-29T20:38:04.162Z,99513.91
2024-02-29T20:40:31.203Z,99506.72
2024-02-29T20:43:00.793Z,99520.59
2024-02-29T20:45:32.588Z,99518.31
2024-02-29T20:48:05.262Z,99518.66
2024-02-29T20:50:36.769Z,99519.16
2024-02-29T20:53:03.798Z,99518.44
2024-02-29T20:55:30.784Z,99521.84
2024-02-29T20:58:02.473Z,99516.97
2024-02-29T21:00:29.492Z,99523.56
2024-02-29T21:02:58.873Z,99519.19
2024-02-29T21:05:25.905Z,99514.84
2024-02-29T21:07:54.037Z,99518.88
2024-02-29T21:10:21.211Z,99523.91
2024-02-29T21:12:48.225Z,99516.50
2024-02-29T21:15:17.805Z,99513.97
2024-02-29T21:17:44.746Z,99508.78
2024-02-29T21:20:14.012Z,99515.84
2024-02-29T21:22:41.146Z,99515.53
2024-02-29T21:25:08.924Z,99521.56
2024-02-29T21:27:38.311Z,99509.97
2024-02-29T21:30:06.690Z,99509.81
2024-02-29T21:32:36.588Z,99511.56
2024-02-29T21:35:04.815Z,99510.91
2024-02-29T21:37:32.536Z,99508.88
2024-02-29T21:39:59.586Z,99506.03
2024-02-29T21:42:31.009Z,99501.00
2024-02-29T21:44:58.004Z,99494.16
2024-02-29T21:47:25.019Z,99489.28
2024-02-29T21:49:54.834Z,99489.13
2024-02-29T21:52:21.972Z,99490.81
2024-02-29T21:54:49.063Z,99475.88
2024-02-29T21:57:16.385Z,99479.72
2024-02-29T21:59:45.077Z,99477.88
2024-02-29T22:02:14.433Z,99478.41
2024-02-29T22:04:43.897Z,99477.59
2024-02-29T22:07:16.200Z,99483.09
2024-02-29T22:09:43.177Z,99489.00
2024-02-29T22:12:10.185Z,99490.16
2024-02-29T22:14:50.215Z,99487.16
2024-02-29T22:17:17.149Z,99488.50
2024-02-29T22:19:44.198Z,99482.13
2024-02-29T22:22:13.850Z,99476.91
2024-02-29T22:24:41.281Z,99487.81
2024-02-29T22:27:08.351Z,99486.47
2024-02-29T22:29:35.278Z,99482.81
2024-02-29T22:32:03.695Z,99485.50
2024-02-29T22:34:32.108Z,99487.03
2024-02-29T22:36:59.138Z,99484.50
2024-02-29T22:39:28.660Z,99484.81
2024-02-29T22:42:00.952Z,99487.03
2024-02-29T22:44:33.115Z,99482.97
2024-02-29T22:47:00.420Z,99484.34
2024-02-29T22:49:29.599Z,99485.50
2024-02-29T22:51:56.715Z,99488.88
2024-02-29T22:54:23.713Z,99481.50
2024-02-29T22:56:53.218Z,99480.13
2024-02-29T22:59:20.214Z,99478.28
2024-02-29T23:01:47.356Z,99480.13
2024-02-29T23:04:17.143Z,99485.19
2024-02-29T23:06:44.382Z,99481.31
2024-02-29T23:09:15.051Z,99476.63
2024-02-29T23:11:42.275Z,99480.28
2024-02-29T23:14:12.052Z,99487.69
2024-02-29T23:16:39.129Z,99481.97
2024-02-29T23:19:06.132Z,99488.88
2024-02-29T23:21:35.476Z,99477.81
2024-02-29T23:24:04.167Z,99484.00
2024-02-29T23:26:31.109Z,99486.69
2024-02-29T23:28:58.020Z,99484.19
2024-02-29T23:31:27.954Z,99483.16
2024-02-29T23:33:54.998Z,99486.03
2024-02-29T23:36:22.103Z,99481.66
2024-02-29T23:38:51.947Z,99478.63
2024-02-29T23:41:20.421Z,99478.66
2024-02-29T23:43:47.498Z,99480.47
2024-02-29T23:46:16.648Z,99475.44
2024-02-29T23:48:46.261Z,99466.91
2024-02-29T23:51:13.282Z,99469.72
2024-02-29T23:53:40.211Z,99476.09
2024-02-29T23:56:07.392Z,99471.06
2024-02-29T23:58:36.458Z,99476.13
